Time;durP1;ratioP1;P1;durP2;ratioP2;P2;SDS_P1;SDS_P2;PMS_P1;PMS_P2;Temp;Humidity;BMP_temperature;BMP_pressure;BME280_temperature;BME280_humidity;BME280_pressure;Samples;Min_cycle;Max_cycle;Signal;HPM_P1;HPM_P2
2021/12/27 00:01:53;;;;;;;1.63;1.63;;;5.80;99.90;;;;;;5097610;28;20234;-69
2021/12/27 00:04:20;;;;;;;1.80;1.75;;;5.80;99.90;;;;;;5097646;28;20275;-69
2021/12/27 00:06:47;;;;;;;1.40;1.40;;;5.80;99.90;;;;;;5097526;28;20203;-69
2021/12/27 00:09:14;;;;;;;1.50;1.50;;;5.80;99.90;;;;;;5097572;28;20222;-69
2021/12/27 00:11:40;;;;;;;1.15;1.15;;;5.80;99.90;;;;;;5097420;28;20218;-69
2021/12/27 00:14:09;;;;;;;1.20;1.20;;;5.80;99.90;;;;;;5097067;28;20202;-69
2021/12/27 00:16:36;;;;;;;1.20;1.20;;;5.80;99.90;;;;;;5097365;28;20230;-69
2021/12/27 00:19:02;;;;;;;1.25;1.25;;;5.70;99.90;;;;;;5097289;28;20305;-69
2021/12/27 00:21:29;;;;;;;1.25;1.25;;;5.70;99.90;;;;;;5112610;22;20646;-72
2021/12/27 00:23:56;;;;;;;1.00;1.00;;;5.70;99.90;;;;;;5078026;28;20231;-71
2021/12/27 00:26:23;;;;;;;1.15;1.15;;;5.70;99.90;;;;;;5077350;28;20227;-71
2021/12/27 00:28:51;;;;;;;1.40;1.40;;;5.60;99.90;;;;;;5076817;28;20258;-71
2021/12/27 00:31:19;;;;;;;1.10;1.10;;;5.60;99.90;;;;;;5076754;28;20219;-70
2021/12/27 00:33:46;;;;;;;1.40;1.40;;;5.60;99.90;;;;;;5076760;28;20202;-70
2021/12/27 00:36:13;;;;;;;0.90;0.90;;;5.60;99.90;;;;;;5076648;28;20206;-70
2021/12/27 00:38:40;;;;;;;1.20;1.20;;;5.50;99.90;;;;;;5076569;28;20290;-70
2021/12/27 00:41:07;;;;;;;1.10;1.10;;;5.50;99.90;;;;;;5076368;28;20625;-70
2021/12/27 00:43:33;;;;;;;1.20;1.20;;;5.40;99.90;;;;;;5076186;28;20290;-70
2021/12/27 00:46:00;;;;;;;1.13;1.13;;;5.40;99.90;;;;;;5076133;28;20295;-70
2021/12/27 00:48:28;;;;;;;1.17;1.17;;;5.30;99.90;;;;;;5076013;28;20704;-70
2021/12/27 00:50:55;;;;;;;1.33;1.33;;;5.30;99.90;;;;;;5076225;28;20252;-70
2021/12/27 00:53:22;;;;;;;1.23;1.23;;;5.30;99.90;;;;;;5076323;28;20200;-70
2021/12/27 00:55:49;;;;;;;1.42;1.42;;;5.30;99.90;;;;;;5075990;28;20299;-70
2021/12/27 00:58:16;;;;;;;1.15;1.15;;;5.40;99.90;;;;;;5076277;28;20569;-71
2021/12/27 01:00:43;;;;;;;1.27;1.27;;;5.40;99.90;;;;;;5076025;28;20244;-71
2021/12/27 01:03:10;;;;;;;1.20;1.20;;;5.40;99.90;;;;;;5076148;28;20204;-71
2021/12/27 01:08:23;;;;;;;2.17;2.08;;;5.40;99.90;;;;;;6022776;22;20620;-70
2021/12/27 01:11:01;;;;;;;1.98;1.88;;;5.40;99.90;;;;;;5096099;28;20293;-70
2021/12/27 01:13:39;;;;;;;1.50;1.50;;;5.70;99.90;;;;;;5096700;28;20282;-70
2021/12/27 01:16:11;;;;;;;1.70;1.70;;;5.40;99.90;;;;;;5096130;28;20179;-70
2021/12/27 01:18:41;;;;;;;2.20;2.10;;;5.40;99.90;;;;;;5096005;28;20227;-70
2021/12/27 01:21:08;;;;;;;1.67;1.67;;;5.40;99.90;;;;;;5095942;28;20219;-70
2021/12/27 01:23:37;;;;;;;1.60;1.50;;;5.30;99.90;;;;;;5120949;22;20231;-67
2021/12/27 01:26:04;;;;;;;1.73;1.73;;;5.30;99.90;;;;;;5096713;28;20222;-67
2021/12/27 01:28:31;;;;;;;1.90;1.80;;;5.30;99.90;;;;;;5096380;28;20267;-67
2021/12/27 01:30:58;;;;;;;1.52;1.52;;;5.30;99.90;;;;;;5096032;28;20290;-67
2021/12/27 06:02:00;;;;;;;1.98;1.90;;;5.80;99.90;;;;;;5702379;22;20693;-68
2021/12/27 06:04:27;;;;;;;2.40;2.30;;;5.80;99.90;;;;;;5095046;28;20290;-68
2021/12/27 06:06:54;;;;;;;1.98;1.90;;;5.80;99.90;;;;;;5095786;28;20290;-67
2021/12/27 06:09:21;;;;;;;2.10;2.00;;;5.80;99.90;;;;;;5095486;28;20203;-67
2021/12/27 06:11:48;;;;;;;1.50;1.50;;;5.80;99.90;;;;;;5095158;28;20298;-68
2021/12/27 06:14:14;;;;;;;1.73;1.67;;;5.80;99.90;;;;;;5113221;22;20230;-68
2021/12/27 06:16:41;;;;;;;1.80;1.80;;;5.80;99.90;;;;;;5074671;28;20239;-68
2021/12/27 06:19:10;;;;;;;1.70;1.70;;;5.80;99.90;;;;;;5074410;28;20662;-68
2021/12/27 06:21:37;;;;;;;1.83;1.83;;;5.80;99.90;;;;;;5074590;28;20228;-68
2021/12/27 06:24:05;;;;;;;1.58;1.58;;;5.70;99.90;;;;;;5074236;28;20251;-68
2021/12/27 06:26:32;;;;;;;1.35;1.35;;;5.70;99.90;;;;;;5074504;28;20214;-68
2021/12/27 06:28:58;;;;;;;1.50;1.50;;;5.70;99.90;;;;;;5074156;28;20569;-68
2021/12/27 06:31:25;;;;;;;1.45;1.45;;;5.70;99.90;;;;;;5074161;28;20764;-68
2021/12/27 06:33:52;;;;;;;1.40;1.40;;;5.60;99.90;;;;;;5074213;28;20269;-68
2021/12/27 06:36:21;;;;;;;1.33;1.33;;;5.60;99.90;;;;;;5074356;28;20231;-68
2021/12/27 06:38:47;;;;;;;1.55;1.55;;;5.60;99.90;;;;;;5073959;28;20295;-68
2021/12/27 06:41:14;;;;;;;1.55;1.55;;;5.60;99.90;;;;;;5074644;28;20251;-68
2021/12/27 06:43:41;;;;;;;1.40;1.40;;;5.60;99.90;;;;;;5073926;28;20263;-68
2021/12/27 06:46:08;;;;;;;1.50;1.50;;;5.60;99.90;;;;;;5074054;28;20236;-68
2021/12/27 06:48:35;;;;;;;1.23;1.23;;;5.60;99.90;;;;;;5074173;28;20266;-68
2021/12/27 06:51:02;;;;;;;1.38;1.38;;;5.60;99.90;;;;;;5074133;28;20200;-68
2021/12/27 06:53:31;;;;;;;1.40;1.40;;;5.70;99.90;;;;;;5074123;28;20199;-68
2021/12/27 06:55:58;;;;;;;1.30;1.30;;;5.70;99.90;;;;;;5074077;28;20333;-67
2021/12/27 06:58:25;;;;;;;1.15;1.15;;;5.60;99.90;;;;;;5073887;28;20257;-67
2021/12/27 07:00:53;;;;;;;2.42;2.33;;;5.60;99.90;;;;;;5073898;28;20306;-67
2021/12/27 07:03:20;;;;;;;2.42;2.33;;;5.60;99.90;;;;;;5073457;28;20286;-70
2021/12/27 07:05:48;;;;;;;2.90;2.70;;;5.60;99.90;;;;;;5073498;28;20219;-68
2021/12/27 07:08:16;;;;;;;3.17;2.90;;;5.60;99.90;;;;;;5073460;28;20204;-68
2021/12/27 07:10:44;;;;;;;3.50;3.25;;;5.70;99.90;;;;;;5073743;28;20203;-68
2021/12/27 07:13:11;;;;;;;4.45;4.13;;;5.60;99.90;;;;;;5077905;28;20227;-68
2021/12/27 07:15:41;;;;;;;5.22;4.53;;;5.60;99.90;;;;;;5077675;28;20236;-68
2021/12/27 07:18:09;;;;;;;3.33;3.03;;;5.50;99.90;;;;;;5077921;28;20204;-66
2021/12/27 07:20:37;;;;;;;3.90;3.70;;;5.50;99.90;;;;;;5079055;28;20215;-69
2021/12/27 07:23:04;;;;;;;3.70;3.42;;;5.60;99.90;;;;;;5078397;28;20298;-66
2021/12/27 07:25:32;;;;;;;3.55;3.30;;;5.60;99.90;;;;;;5077197;28;20220;-66
2021/12/27 07:28:00;;;;;;;4.25;3.90;;;5.60;99.90;;;;;;5076338;28;20208;-66
2021/12/27 07:30:29;;;;;;;4.70;4.30;;;5.60;99.90;;;;;;5076447;28;20707;-67
2021/12/27 07:32:57;;;;;;;5.55;5.05;;;5.60;99.90;;;;;;5077913;28;20208;-66
2021/12/27 07:35:25;;;;;;;4.00;3.70;;;5.60;99.90;;;;;;5077395;28;20216;-68
2021/12/27 07:37:53;;;;;;;3.83;3.53;;;5.60;99.90;;;;;;5078389;28;20196;-68
2021/12/27 07:40:20;;;;;;;3.67;3.38;;;5.60;99.90;;;;;;5076925;28;20219;-68
2021/12/27 07:42:47;;;;;;;5.38;4.88;;;5.60;99.90;;;;;;5077261;28;20204;-68
2021/12/27 07:45:16;;;;;;;4.85;4.45;;;5.60;99.90;;;;;;5076876;28;20651;-66
2021/12/27 07:47:44;;;;;;;4.53;4.13;;;5.60;99.90;;;;;;5078278;28;20251;-69
2021/12/27 07:50:11;;;;;;;4.20;3.90;;;5.60;99.90;;;;;;5079857;28;20207;-69
2021/12/27 07:52:38;;;;;;;4.00;3.70;;;5.70;99.90;;;;;;5079077;28;20211;-69
2021/12/27 07:55:07;;;;;;;3.40;3.17;;;5.70;99.90;;;;;;5078069;28;20310;-66
2021/12/27 07:57:35;;;;;;;3.03;2.92;;;5.70;99.90;;;;;;5077185;28;20235;-69
2021/12/27 08:00:03;;;;;;;2.88;2.75;;;5.80;99.90;;;;;;5077031;28;20204;-69
2021/12/27 08:02:32;;;;;;;2.80;2.70;;;5.80;99.90;;;;;;5076423;28;20237;-68
2021/12/27 08:05:00;;;;;;;2.55;2.45;;;5.80;99.90;;;;;;5077738;28;20221;-68
2021/12/27 08:07:27;;;;;;;2.70;2.60;;;5.80;99.90;;;;;;5074027;28;20690;-68
2021/12/27 08:09:53;;;;;;;2.42;2.33;;;5.80;99.90;;;;;;5073006;28;20658;-65
2021/12/27 08:12:20;;;;;;;2.63;2.42;;;5.90;99.90;;;;;;5072836;28;20730;-66
2021/12/27 08:14:47;;;;;;;2.30;2.20;;;5.90;99.90;;;;;;5073476;28;20295;-66
2021/12/27 08:17:14;;;;;;;2.40;2.30;;;5.90;99.90;;;;;;5076706;28;20680;-65
2021/12/27 08:19:42;;;;;;;2.20;2.10;;;5.90;99.90;;;;;;5076673;28;20762;-66
2021/12/27 08:22:09;;;;;;;2.08;2.05;;;5.90;99.90;;;;;;5076991;28;20318;-67
2021/12/27 08:24:36;;;;;;;2.20;2.10;;;6.00;99.90;;;;;;5077007;28;20258;-67
2021/12/27 08:27:03;;;;;;;1.50;1.50;;;6.00;99.90;;;;;;5077029;28;20206;-68
2021/12/27 08:29:31;;;;;;;2.05;1.95;;;6.10;99.90;;;;;;5077158;28;20196;-68
2021/12/27 08:31:58;;;;;;;2.20;2.10;;;6.10;99.90;;;;;;5077032;28;20200;-68
2021/12/27 08:34:25;;;;;;;1.90;1.90;;;6.20;99.90;;;;;;5076921;28;20228;-68
2021/12/27 08:36:54;;;;;;;3.70;3.42;;;6.20;99.90;;;;;;5076896;28;20231;-68
2021/12/27 08:39:20;;;;;;;3.00;2.90;;;6.30;99.90;;;;;;5076995;28;20204;-68
2021/12/27 08:41:47;;;;;;;3.20;3.00;;;6.30;99.90;;;;;;5076899;28;20219;-68
2021/12/27 08:44:14;;;;;;;2.55;2.45;;;6.30;99.90;;;;;;5078526;28;20310;-70
2021/12/27 08:46:42;;;;;;;3.35;3.15;;;6.40;99.90;;;;;;5077379;28;20195;-70
2021/12/27 08:49:10;;;;;;;2.47;2.38;;;6.50;99.90;;;;;;5076223;28;20200;-70
2021/12/27 08:51:37;;;;;;;2.83;2.63;;;6.50;99.90;;;;;;5076525;28;20223;-70
2021/12/27 08:54:06;;;;;;;2.88;2.78;;;6.60;99.90;;;;;;5076229;28;20306;-70
2021/12/27 08:56:33;;;;;;;2.72;2.60;;;6.60;99.90;;;;;;5076558;28;20223;-70
2021/12/27 08:59:00;;;;;;;3.47;3.28;;;6.60;99.90;;;;;;5076713;28;20727;-70
2021/12/27 09:01:27;;;;;;;3.90;3.60;;;6.60;99.90;;;;;;5078376;28;20310;-70
2021/12/27 09:03:54;;;;;;;3.85;3.55;;;6.50;99.90;;;;;;5078168;28;20643;-68
2021/12/27 09:06:21;;;;;;;3.47;3.28;;;6.60;99.90;;;;;;5079384;28;20564;-68
2021/12/27 09:08:48;;;;;;;4.18;3.88;;;6.60;99.90;;;;;;5079114;28;20733;-67
2021/12/27 09:11:16;;;;;;;4.38;4.07;;;6.50;99.90;;;;;;5079151;28;20219;-68
2021/12/27 09:13:44;;;;;;;4.07;3.78;;;6.40;99.90;;;;;;5082853;28;20227;-69
2021/12/27 09:16:13;;;;;;;4.03;3.80;;;6.40;99.90;;;;;;5077605;28;20273;-69
2021/12/27 09:18:39;;;;;;;3.40;3.20;;;6.50;99.90;;;;;;5079352;28;20655;-70
2021/12/27 09:21:07;;;;;;;3.05;2.85;;;6.50;99.90;;;;;;5082160;28;20310;-69
2021/12/27 09:23:35;;;;;;;2.67;2.47;;;6.60;99.90;;;;;;5077444;28;20204;-69
2021/12/27 09:26:02;;;;;;;2.75;2.65;;;6.60;99.90;;;;;;5080287;28;20203;-69
2021/12/27 09:28:31;;;;;;;2.88;2.78;;;6.60;99.90;;;;;;5080494;28;20292;-69
2021/12/27 09:30:58;;;;;;;2.80;2.70;;;6.70;99.90;;;;;;5079905;28;20651;-69
2021/12/27 09:33:25;;;;;;;2.80;2.70;;;6.70;99.90;;;;;;5079878;28;20734;-69
2021/12/27 09:35:54;;;;;;;2.90;2.80;;;6.60;99.90;;;;;;5079736;28;20726;-70
2021/12/27 09:38:20;;;;;;;3.35;3.15;;;6.60;99.90;;;;;;5078026;28;20299;-70
2021/12/27 09:40:47;;;;;;;2.80;2.67;;;6.50;99.90;;;;;;5078164;28;20290;-69
2021/12/27 09:43:14;;;;;;;3.60;3.40;;;6.50;99.90;;;;;;5077961;28;20619;-70
2021/12/27 09:45:43;;;;;;;2.47;2.38;;;6.60;99.90;;;;;;5078215;28;20306;-70
2021/12/27 09:48:10;;;;;;;2.47;2.38;;;6.60;99.90;;;;;;5077959;28;20211;-69
2021/12/27 09:50:41;;;;;;;2.65;2.53;;;6.70;99.90;;;;;;5078139;28;20287;-69
2021/12/27 09:53:08;;;;;;;2.53;2.42;;;6.80;99.90;;;;;;5075795;28;20231;-69
2021/12/27 09:55:35;;;;;;;1.95;1.95;;;6.90;99.90;;;;;;5075454;28;20224;-71
2021/12/27 09:58:02;;;;;;;2.28;2.17;;;7.00;99.90;;;;;;5075398;28;20204;-71
2021/12/27 10:00:29;;;;;;;2.40;2.30;;;7.10;99.90;;;;;;5075645;28;20227;-71
2021/12/27 10:02:58;;;;;;;2.25;2.17;;;7.10;99.90;;;;;;5075101;28;20580;-70
2021/12/27 10:05:32;;;;;;;1.98;1.90;;;7.10;99.90;;;;;;5075328;28;20226;-69
2021/12/27 10:07:59;;;;;;;2.05;1.95;;;7.20;99.90;;;;;;5075844;28;20211;-69
2021/12/27 10:10:26;;;;;;;1.77;1.77;;;7.30;99.90;;;;;;5075383;28;20299;-69
2021/12/27 10:12:53;;;;;;;1.70;1.70;;;7.40;99.90;;;;;;5075379;28;20286;-69
2021/12/27 10:15:22;;;;;;;1.50;1.50;;;7.40;99.90;;;;;;5074637;28;20235;-70
2021/12/27 10:17:50;;;;;;;1.45;1.45;;;7.50;99.90;;;;;;5075007;28;20291;-72
2021/12/27 10:20:22;;;;;;;3.13;2.92;;;7.50;99.90;;;;;;5074876;28;20234;-69
2021/12/27 10:22:50;;;;;;;3.80;3.50;;;7.50;99.90;;;;;;5074752;28;20208;-67
2021/12/27 10:25:20;;;;;;;2.90;2.80;;;7.40;99.90;;;;;;5074524;28;20728;-69
2021/12/27 10:27:48;;;;;;;3.00;2.80;;;7.30;99.90;;;;;;5074646;28;20249;-69
2021/12/27 10:30:17;;;;;;;2.97;2.70;;;7.40;99.90;;;;;;5075273;28;20271;-72
2021/12/27 10:32:45;;;;;;;2.90;2.70;;;7.30;99.90;;;;;;5074490;28;20287;-69
2021/12/27 10:35:12;;;;;;;2.85;2.65;;;7.40;99.90;;;;;;5074950;28;20212;-68
2021/12/27 10:37:43;;;;;;;2.55;2.45;;;7.40;99.90;;;;;;5074180;28;20279;-69
2021/12/27 10:40:12;;;;;;;2.70;2.50;;;7.50;99.90;;;;;;5074340;28;20547;-69
2021/12/27 10:42:41;;;;;;;2.38;2.28;;;7.50;99.90;;;;;;5074238;28;20227;-69
2021/12/27 10:45:11;;;;;;;2.13;2.00;;;7.60;99.90;;;;;;5075140;28;20273;-69
2021/12/27 10:47:42;;;;;;;2.03;2.03;;;7.60;99.90;;;;;;5075318;28;20188;-69
2021/12/27 10:50:17;;;;;;;2.10;2.00;;;7.70;99.90;;;;;;5074659;28;20194;-69
2021/12/27 10:52:57;;;;;;;1.90;1.90;;;7.80;99.90;;;;;;5076739;28;20241;-69
2021/12/27 10:55:28;;;;;;;2.38;2.28;;;7.80;99.90;;;;;;5076554;28;20303;-69
2021/12/27 10:58:10;;;;;;;2.20;2.00;;;7.80;99.90;;;;;;5076065;28;20248;-70
2021/12/27 11:00:38;;;;;;;2.08;1.98;;;7.90;99.90;;;;;;5075600;28;20275;-70
2021/12/27 11:03:05;;;;;;;1.92;1.88;;;7.90;99.90;;;;;;5075362;28;20273;-69
2021/12/27 11:05:34;;;;;;;2.40;2.30;;;7.90;99.90;;;;;;5075169;28;20331;-70
2021/12/27 11:08:05;;;;;;;2.80;2.60;;;7.90;99.90;;;;;;5074803;28;20300;-70
2021/12/27 11:10:34;;;;;;;2.65;2.45;;;7.90;99.90;;;;;;5075510;28;20215;-70
2021/12/27 11:13:03;;;;;;;2.35;2.13;;;7.90;99.90;;;;;;5077682;28;20286;-70
2021/12/27 11:15:31;;;;;;;2.20;2.20;;;7.90;99.90;;;;;;5076594;28;20373;-70
2021/12/27 11:17:59;;;;;;;2.47;2.38;;;7.90;99.90;;;;;;5078447;28;20287;-70
2021/12/27 11:20:27;;;;;;;2.30;2.20;;;8.00;99.90;;;;;;5078635;28;20660;-70
2021/12/27 11:22:58;;;;;;;2.45;2.25;;;8.00;99.90;;;;;;5078739;28;20270;-70
2021/12/27 11:25:32;;;;;;;1.95;1.95;;;8.00;99.90;;;;;;5077558;28;20598;-70
2021/12/27 11:28:00;;;;;;;2.63;2.53;;;7.90;99.90;;;;;;5077458;28;20248;-70
2021/12/27 11:30:29;;;;;;;2.63;2.53;;;7.90;99.90;;;;;;5077973;28;20238;-70
2021/12/27 11:33:05;;;;;;;3.38;2.08;;;7.80;99.90;;;;;;5077886;28;20195;-70
2021/12/27 11:35:33;;;;;;;1.77;1.77;;;7.70;99.90;;;;;;5079043;28;20280;-70
2021/12/27 11:38:01;;;;;;;1.75;1.73;;;7.70;99.90;;;;;;5078149;28;20231;-70
2021/12/27 11:40:42;;;;;;;1.85;1.85;;;7.70;99.90;;;;;;5076382;28;20611;-70
2021/12/27 11:43:09;;;;;;;1.92;1.80;;;7.70;99.90;;;;;;5073524;28;20294;-69
2021/12/27 11:45:47;;;;;;;2.60;2.50;;;7.70;99.90;;;;;;5073509;28;20315;-69
2021/12/27 11:48:16;;;;;;;2.20;2.10;;;7.70;99.90;;;;;;5073223;28;20204;-69
2021/12/27 11:51:07;;;;;;;1.80;1.80;;;7.80;99.90;;;;;;5075925;28;20286;-69
2021/12/27 11:53:37;;;;;;;2.03;1.92;;;7.80;99.90;;;;;;5077307;28;20196;-69
2021/12/27 11:56:10;;;;;;;2.15;2.05;;;7.90;99.90;;;;;;5077381;28;20291;-69
2021/12/27 11:58:39;;;;;;;1.83;1.83;;;7.90;99.90;;;;;;5077371;28;20186;-69
2021/12/27 12:01:27;;;;;;;2.10;2.00;;;8.00;99.90;;;;;;5077284;28;20713;-69
2021/12/27 12:03:57;;;;;;;1.55;1.55;;;8.10;99.90;;;;;;5076961;28;20757;-69
2021/12/27 12:06:41;;;;;;;1.65;1.65;;;8.30;99.90;;;;;;5077634;28;20195;-69
2021/12/27 12:09:11;;;;;;;1.42;1.42;;;8.30;99.90;;;;;;5075629;28;20207;-69
2021/12/27 12:11:40;;;;;;;1.73;1.73;;;8.40;99.90;;;;;;5077351;28;20267;-69
2021/12/27 12:14:35;;;;;;;1.40;1.40;;;8.50;99.90;;;;;;5076861;28;20259;-69
2021/12/27 12:17:04;;;;;;;1.30;1.30;;;8.60;99.90;;;;;;5041641;28;20294;-69
2021/12/27 12:19:40;;;;;;;1.80;1.73;;;8.60;99.90;;;;;;5076968;28;20299;-69
2021/12/27 12:22:29;;;;;;;1.50;1.50;;;8.60;99.90;;;;;;5076877;28;20214;-70
2021/12/27 12:25:06;;;;;;;1.40;1.40;;;8.60;99.90;;;;;;5076277;28;20711;-70
2021/12/27 12:27:35;;;;;;;1.75;1.70;;;8.60;99.90;;;;;;5076706;28;20223;-70
2021/12/27 12:30:02;;;;;;;1.83;1.80;;;8.60;99.90;;;;;;5076825;28;20286;-70
2021/12/27 12:32:29;;;;;;;1.75;1.67;;;8.60;99.90;;;;;;5076788;28;20286;-70
2021/12/27 12:34:56;;;;;;;1.58;1.50;;;8.60;99.90;;;;;;5077424;28;20690;-70
2021/12/27 12:37:22;;;;;;;1.30;1.30;;;8.60;99.90;;;;;;5076833;28;20287;-70
2021/12/27 12:39:51;;;;;;;1.60;1.50;;;8.70;99.90;;;;;;5076583;28;20244;-70
2021/12/27 12:42:21;;;;;;;1.30;1.30;;;8.70;99.90;;;;;;5076466;28;20223;-70
2021/12/27 12:44:51;;;;;;;1.30;1.30;;;8.80;99.90;;;;;;5076454;28;20273;-70
2021/12/27 12:47:19;;;;;;;1.13;1.13;;;8.70;99.90;;;;;;5077005;28;20271;-71
2021/12/27 12:49:46;;;;;;;1.30;1.30;;;8.70;99.90;;;;;;5076399;28;20234;-71
2021/12/27 12:52:13;;;;;;;1.40;1.30;;;8.70;99.90;;;;;;5076822;28;20282;-70
2021/12/27 12:54:43;;;;;;;0.90;0.90;;;8.70;99.90;;;;;;5076307;28;20262;-70
2021/12/27 12:57:12;;;;;;;0.90;0.90;;;8.70;99.90;;;;;;5075982;28;20291;-70
2021/12/27 12:59:41;;;;;;;1.10;1.10;;;8.70;99.90;;;;;;5076213;28;20291;-70
2021/12/27 13:02:12;;;;;;;1.25;1.25;;;8.60;99.90;;;;;;5075651;28;20274;-70
2021/12/27 13:04:51;;;;;;;1.05;1.05;;;8.70;99.90;;;;;;5076070;28;20535;-70
2021/12/27 13:07:39;;;;;;;1.20;1.20;;;8.60;99.90;;;;;;5076067;28;20215;-70
2021/12/27 13:10:08;;;;;;;1.30;1.30;;;8.60;99.90;;;;;;5076064;28;20188;-70
2021/12/27 13:12:37;;;;;;;0.93;0.93;;;8.60;99.90;;;;;;5075986;28;20283;-70
2021/12/27 13:15:14;;;;;;;0.90;0.90;;;8.60;99.90;;;;;;5075508;28;20232;-70
2021/12/27 13:17:42;;;;;;;0.90;0.90;;;8.60;99.90;;;;;;5076025;28;20609;-70
2021/12/27 13:20:12;;;;;;;0.73;0.73;;;8.60;99.90;;;;;;5075580;28;20206;-70
2021/12/27 13:22:49;;;;;;;0.90;0.90;;;8.50;99.90;;;;;;5075745;28;20258;-70
2021/12/27 13:25:36;;;;;;;0.90;0.90;;;8.50;99.90;;;;;;5075662;28;20306;-71
2021/12/27 13:28:14;;;;;;;0.77;0.77;;;8.50;99.90;;;;;;5075767;28;20283;-71
2021/12/27 13:30:46;;;;;;;1.00;1.00;;;8.50;99.90;;;;;;5075682;28;20272;-70
2021/12/27 13:33:15;;;;;;;1.10;1.10;;;8.40;99.90;;;;;;5075569;28;20200;-70
2021/12/27 13:35:43;;;;;;;1.40;1.40;;;8.40;99.90;;;;;;5075478;28;20314;-70
2021/12/27 13:38:18;;;;;;;1.25;1.25;;;8.40;99.90;;;;;;5075485;28;20200;-70
2021/12/27 13:40:46;;;;;;;0.90;0.90;;;8.30;99.90;;;;;;5075447;28;20225;-70
2021/12/27 13:43:13;;;;;;;1.00;1.00;;;8.30;99.90;;;;;;5075721;28;20666;-70
2021/12/27 13:45:42;;;;;;;0.98;0.98;;;8.30;99.90;;;;;;5076038;28;20320;-70
2021/12/27 13:48:10;;;;;;;0.90;0.90;;;8.20;99.90;;;;;;5076320;28;20246;-70
2021/12/27 13:50:39;;;;;;;0.80;0.80;;;8.20;99.90;;;;;;5076105;28;20200;-70
2021/12/27 13:53:17;;;;;;;0.80;0.80;;;8.20;99.90;;;;;;5076493;28;20235;-70
2021/12/27 13:55:46;;;;;;;1.00;1.00;;;8.10;99.90;;;;;;5074830;28;20781;-70
2021/12/27 13:58:18;;;;;;;0.90;0.90;;;8.10;99.90;;;;;;5074842;28;20661;-70
2021/12/27 14:00:47;;;;;;;0.60;0.60;;;8.10;99.90;;;;;;5075050;28;20291;-70
2021/12/27 14:03:35;;;;;;;0.80;0.80;;;8.10;99.90;;;;;;5074609;28;20219;-70
2021/12/27 14:06:05;;;;;;;0.77;0.77;;;8.00;99.90;;;;;;5075021;28;20265;-70
2021/12/27 14:08:33;;;;;;;1.17;1.17;;;8.00;99.90;;;;;;5074783;28;20275;-71
2021/12/27 14:11:02;;;;;;;1.10;1.10;;;7.90;99.90;;;;;;5074967;28;20290;-71
2021/12/27 14:13:48;;;;;;;1.10;1.10;;;7.90;99.90;;;;;;5074112;28;20279;-71
2021/12/27 14:16:24;;;;;;;0.90;0.90;;;7.90;99.90;;;;;;5074701;28;20187;-70
2021/12/27 14:19:11;;;;;;;0.77;0.77;;;7.80;99.90;;;;;;5074855;28;20270;-70
2021/12/27 14:22:11;;;;;;;1.10;1.10;;;7.80;99.90;;;;;;5074474;28;20196;-70
2021/12/27 14:24:54;;;;;;;1.67;1.58;;;7.80;99.90;;;;;;5012584;28;20253;-70
2021/12/27 14:27:28;;;;;;;1.73;1.73;;;7.70;99.90;;;;;;5068161;28;20207;-70
2021/12/27 14:30:10;;;;;;;2.05;1.38;;;7.60;99.90;;;;;;5074486;28;20276;-70
2021/12/27 14:32:39;;;;;;;1.83;1.73;;;7.60;99.90;;;;;;5074781;28;20180;-70
2021/12/27 14:35:18;;;;;;;1.58;1.58;;;7.60;99.90;;;;;;5074297;28;20255;-70
2021/12/27 14:37:47;;;;;;;1.13;1.13;;;7.60;99.90;;;;;;5074372;28;20271;-70
2021/12/27 14:40:14;;;;;;;1.55;1.55;;;7.50;99.90;;;;;;5073936;28;20200;-70
2021/12/27 14:42:41;;;;;;;1.38;1.38;;;7.50;99.90;;;;;;5074200;28;20306;-70
2021/12/27 14:45:08;;;;;;;1.30;1.30;;;7.50;99.90;;;;;;5074147;28;20315;-70
2021/12/27 14:47:36;;;;;;;1.45;1.45;;;7.50;99.90;;;;;;5073793;28;20286;-70
2021/12/27 14:50:04;;;;;;;1.15;1.13;;;7.50;99.90;;;;;;5074186;28;20195;-71
2021/12/27 14:52:31;;;;;;;1.55;1.55;;;7.40;99.90;;;;;;5074067;28;20291;-70
2021/12/27 14:54:59;;;;;;;2.25;2.15;;;7.40;99.90;;;;;;5073858;28;20307;-70
2021/12/27 14:57:26;;;;;;;1.80;1.80;;;7.40;99.90;;;;;;5074007;28;20237;-70
2021/12/27 14:59:53;;;;;;;2.45;2.35;;;7.40;99.90;;;;;;5073978;28;20224;-70
2021/12/27 15:02:21;;;;;;;1.88;1.88;;;7.30;99.90;;;;;;5073930;28;20200;-70
2021/12/27 15:04:48;;;;;;;3.20;3.00;;;7.40;99.90;;;;;;5073842;28;20306;-70
2021/12/27 15:07:15;;;;;;;3.22;3.03;;;7.30;99.90;;;;;;5073548;28;20287;-70
2021/12/27 15:09:42;;;;;;;3.05;2.80;;;7.30;99.90;;;;;;5074086;28;20290;-70
2021/12/27 15:12:11;;;;;;;2.88;2.72;;;7.20;99.90;;;;;;5073575;28;20573;-70
2021/12/27 15:14:38;;;;;;;2.50;2.40;;;7.10;99.90;;;;;;5073400;28;20315;-70
2021/12/27 15:17:05;;;;;;;2.42;2.33;;;7.10;99.90;;;;;;5073798;28;20291;-70
2021/12/27 15:19:32;;;;;;;3.13;2.92;;;7.10;99.90;;;;;;5073734;28;20290;-70
2021/12/27 15:21:59;;;;;;;2.78;2.63;;;7.10;99.90;;;;;;5073315;28;20235;-70
2021/12/27 15:24:25;;;;;;;2.70;2.60;;;7.00;99.90;;;;;;5073337;28;20228;-70
2021/12/27 15:26:52;;;;;;;2.35;2.25;;;7.00;99.90;;;;;;5073609;28;20288;-70
2021/12/27 15:29:21;;;;;;;2.50;2.40;;;7.00;99.90;;;;;;5073220;28;20235;-70
2021/12/27 15:31:49;;;;;;;2.17;2.08;;;6.90;99.90;;;;;;5073142;28;20679;-70
2021/12/27 15:34:16;;;;;;;2.08;2.00;;;6.90;99.90;;;;;;5073913;28;20273;-70
2021/12/27 15:36:43;;;;;;;2.47;2.38;;;6.90;99.90;;;;;;5073512;28;20286;-70
2021/12/27 15:39:09;;;;;;;2.63;2.53;;;6.90;99.90;;;;;;5073528;28;20291;-70
2021/12/27 15:41:36;;;;;;;2.33;2.22;;;6.90;99.90;;;;;;5073357;28;20199;-70
2021/12/27 15:44:04;;;;;;;2.17;2.08;;;6.80;99.90;;;;;;5072908;28;20223;-70
2021/12/27 15:46:32;;;;;;;2.20;2.10;;;6.80;99.90;;;;;;5073312;28;20290;-70
2021/12/27 15:48:59;;;;;;;2.03;2.03;;;6.80;99.90;;;;;;5073832;28;20287;-70
2021/12/27 15:51:25;;;;;;;3.03;2.83;;;6.70;99.90;;;;;;5073361;28;20223;-71
2021/12/27 15:53:52;;;;;;;2.65;2.55;;;6.70;99.90;;;;;;5073264;28;20293;-71
2021/12/27 15:56:20;;;;;;;2.65;2.55;;;6.60;99.90;;;;;;5073008;28;20640;-71
2021/12/27 15:58:47;;;;;;;2.53;2.42;;;6.60;99.90;;;;;;5073000;28;20631;-71
2021/12/27 16:01:13;;;;;;;3.17;2.97;;;6.60;99.90;;;;;;5072948;28;20286;-71
2021/12/27 16:03:42;;;;;;;2.67;2.58;;;6.60;99.90;;;;;;5073148;28;20321;-72
2021/12/27 16:06:09;;;;;;;2.65;2.55;;;6.60;99.90;;;;;;5073306;28;20207;-72
2021/12/27 16:08:36;;;;;;;2.60;2.50;;;6.60;99.90;;;;;;5073216;28;20298;-72
2021/12/27 16:11:03;;;;;;;2.55;2.45;;;6.50;99.90;;;;;;5073469;28;20203;-71
2021/12/27 16:13:37;;;;;;;2.80;2.70;;;6.60;99.90;;;;;;5074181;28;20734;-70
2021/12/27 16:16:07;;;;;;;2.33;2.22;;;6.50;99.90;;;;;;5074702;28;20295;-70
2021/12/27 16:18:35;;;;;;;2.40;2.30;;;6.50;99.90;;;;;;5073200;28;20282;-70
2021/12/27 16:21:04;;;;;;;2.15;2.05;;;6.50;99.90;;;;;;5073075;28;20294;-69
2021/12/27 16:23:31;;;;;;;2.55;2.45;;;6.50;99.90;;;;;;5072962;28;20226;-69
2021/12/27 16:25:59;;;;;;;2.00;1.90;;;6.50;99.90;;;;;;5072925;28;20307;-69
2021/12/27 16:28:25;;;;;;;2.58;2.47;;;6.60;99.90;;;;;;5072930;28;20208;-69
2021/12/27 16:30:53;;;;;;;3.00;2.90;;;6.60;99.90;;;;;;5072990;28;20625;-69
2021/12/27 16:33:20;;;;;;;2.53;2.42;;;6.60;99.90;;;;;;5072569;28;20294;-69
2021/12/27 16:35:49;;;;;;;5.55;3.70;;;6.60;99.90;;;;;;5073404;28;20262;-69
2021/12/27 16:38:20;;;;;;;2.92;2.78;;;6.60;99.90;;;;;;5076636;28;20196;-69
2021/12/27 16:40:47;;;;;;;3.13;2.83;;;6.60;99.90;;;;;;5076778;28;20189;-69
2021/12/27 16:43:14;;;;;;;3.10;2.80;;;6.60;99.90;;;;;;5076213;28;20664;-69
2021/12/27 16:45:41;;;;;;;4.05;2.60;;;6.60;99.90;;;;;;5076428;28;20281;-70
2021/12/27 16:48:08;;;;;;;3.55;3.35;;;6.60;99.90;;;;;;5076143;28;20211;-70
2021/12/27 16:50:37;;;;;;;2.95;2.75;;;6.60;99.90;;;;;;5076204;28;20765;-71
2021/12/27 16:53:05;;;;;;;2.80;2.60;;;6.60;99.90;;;;;;5076032;28;20657;-71
2021/12/27 16:55:34;;;;;;;2.20;2.10;;;6.60;99.90;;;;;;5076265;28;20312;-70
2021/12/27 16:58:02;;;;;;;4.13;2.60;;;6.50;99.90;;;;;;5076314;28;20295;-70
2021/12/27 17:00:30;;;;;;;2.75;2.65;;;6.50;99.90;;;;;;5076224;28;20290;-70
2021/12/27 17:02:58;;;;;;;3.45;3.15;;;6.50;99.90;;;;;;5076118;28;20261;-70
2021/12/27 17:05:26;;;;;;;2.80;2.60;;;6.50;99.90;;;;;;5076170;28;20307;-70
2021/12/27 17:07:53;;;;;;;2.47;2.38;;;6.40;99.90;;;;;;5076072;28;20291;-70
2021/12/27 17:10:20;;;;;;;2.70;2.60;;;6.40;99.90;;;;;;5076038;28;20200;-70
2021/12/27 17:12:48;;;;;;;2.15;2.05;;;6.40;99.90;;;;;;5075800;28;20196;-69
2021/12/27 17:15:15;;;;;;;2.05;1.95;;;6.40;99.90;;;;;;5075752;28;20314;-69
2021/12/27 17:17:42;;;;;;;1.90;1.90;;;6.40;99.90;;;;;;5075945;28;20286;-69
2021/12/27 17:20:10;;;;;;;2.22;2.13;;;6.40;99.90;;;;;;5075848;28;20291;-68
2021/12/27 17:22:37;;;;;;;2.17;2.08;;;6.40;99.90;;;;;;5075473;28;20200;-69
2021/12/27 17:25:07;;;;;;;2.42;2.33;;;6.40;99.90;;;;;;5075674;28;20262;-69
2021/12/27 17:27:34;;;;;;;2.47;2.38;;;6.30;99.90;;;;;;5076065;28;20204;-69
2021/12/27 17:30:03;;;;;;;1.88;1.83;;;6.30;99.90;;;;;;5075733;28;20203;-69
2021/12/27 17:32:30;;;;;;;1.90;1.88;;;6.30;99.90;;;;;;5075670;28;20223;-69
2021/12/27 17:34:57;;;;;;;1.80;1.80;;;6.30;99.90;;;;;;5075624;28;20216;-69
2021/12/27 17:37:24;;;;;;;1.90;1.80;;;6.20;99.90;;;;;;5075665;28;20621;-69
2021/12/27 17:39:51;;;;;;;2.28;2.17;;;6.10;99.90;;;;;;5075235;28;20206;-69